首页
METAR-TAF:

METAR-TAF

机场 :

伯灵顿/ 弗农山, 华盛顿, 美国

纬度: 48-28-15N, 经度: 122-25-15W, 海拔: 44米

当前天气观测

该预报发布于21分钟前的20:15 UTC
风速6节,风向西转西北
温度 14°C
湿度 51%
气压 1021 hPa
能見度: 14.5公里
多云层高于3800英尺

METAR: KBVS 182015Z AUTO 30006KT 9SM BKN038 14/04 A3015 RMK A01

时间: 13:36 (20:36 UTC)


TAF: 丢失

超过4000个机场的气象观测和天气预报(METAR&TAF报告)。

可查询的气象台以黄色和红色小点在地图上表示。

将鼠标移到小点上方,可查看气象台名称。

然后点击查看天气观测和预报。

如需切换地图:点击带黑十字的绿色按钮放大地图;点击带横线的绿色按钮缩小地图;或者点击绿色箭头查看邻近地区的地图。


METAR-TAF: